createdAt,value
2018-07-27T00:01:44.858Z,14.13
2018-07-27T00:04:13.768Z,13.65
2018-07-27T00:06:42.636Z,13.45
2018-07-27T00:09:13.006Z,13.90
2018-07-27T00:11:42.689Z,12.53
2018-07-27T00:14:11.674Z,14.50
2018-07-27T00:16:41.327Z,12.53
2018-07-27T00:19:10.236Z,12.90
2018-07-27T00:21:39.148Z,12.60
2018-07-27T00:24:08.079Z,13.65
2018-07-27T00:26:36.947Z,12.98
2018-07-27T00:29:06.547Z,13.13
2018-07-27T00:31:36.324Z,13.35
2018-07-27T00:34:05.497Z,13.60
2018-07-27T00:36:34.619Z,13.48
2018-07-27T00:39:04.231Z,13.13
2018-07-27T00:41:33.258Z,13.88
2018-07-27T00:44:02.379Z,13.08
2018-07-27T00:46:31.520Z,13.15
2018-07-27T00:49:00.603Z,13.22
2018-07-27T00:51:29.735Z,12.80
2018-07-27T00:53:58.573Z,14.90
2018-07-27T00:56:27.716Z,13.10
2018-07-27T00:58:56.614Z,12.70
2018-07-27T01:01:25.585Z,13.00
2018-07-27T01:03:54.431Z,12.70
2018-07-27T01:06:23.293Z,12.78
2018-07-27T01:08:52.219Z,13.75
2018-07-27T01:11:21.920Z,12.55
2018-07-27T01:13:51.624Z,14.55
2018-07-27T01:16:20.645Z,12.15
2018-07-27T01:18:49.540Z,12.37
2018-07-27T01:21:18.403Z,13.08
2018-07-27T01:23:47.517Z,12.60
2018-07-27T01:26:16.649Z,13.98
2018-07-27T01:28:45.564Z,13.20
2018-07-27T01:31:14.476Z,12.50
2018-07-27T01:33:43.344Z,14.15
2018-07-27T01:36:12.248Z,13.70
2018-07-27T01:38:41.111Z,13.05
2018-07-27T01:41:10.009Z,15.23
2018-07-27T01:43:38.934Z,13.05
2018-07-27T01:46:07.843Z,14.18
2018-07-27T01:48:36.947Z,13.68
2018-07-27T01:51:06.121Z,13.75
2018-07-27T01:53:35.188Z,14.38
2018-07-27T01:56:04.413Z,15.28
2018-07-27T01:58:33.311Z,14.93
2018-07-27T02:01:02.704Z,14.30
2018-07-27T02:03:31.262Z,14.85
2018-07-27T02:06:00.269Z,14.33
2018-07-27T02:08:30.031Z,12.10
2018-07-27T02:10:58.992Z,14.98
2018-07-27T02:13:27.905Z,16.07
2018-07-27T02:15:56.814Z,14.07
2018-07-27T02:18:25.831Z,14.43
2018-07-27T02:20:54.793Z,14.90
2018-07-27T02:23:23.690Z,13.58
2018-07-27T02:25:52.559Z,13.15
2018-07-27T02:28:21.579Z,14.25
2018-07-27T02:30:50.462Z,13.98
2018-07-27T02:33:19.459Z,13.62
2018-07-27T02:35:49.363Z,15.10
2018-07-27T02:38:18.959Z,14.05
2018-07-27T02:40:47.896Z,15.80
2018-07-27T02:43:16.741Z,14.68
2018-07-27T02:45:45.640Z,15.65
2018-07-27T02:48:14.482Z,14.43
2018-07-27T02:50:43.399Z,15.78
2018-07-27T02:53:12.248Z,15.75
2018-07-27T02:55:41.141Z,15.25
2018-07-27T02:58:10.233Z,15.30
2018-07-27T03:00:39.230Z,16.93
2018-07-27T03:03:08.092Z,16.40
2018-07-27T03:05:37.172Z,14.70
2018-07-27T03:08:06.206Z,18.02
2018-07-27T03:10:35.092Z,16.02
2018-07-27T03:13:04.198Z,15.05
2018-07-27T03:15:33.220Z,15.65
2018-07-27T03:18:02.408Z,15.98
2018-07-27T03:20:31.582Z,16.55
2018-07-27T03:23:00.598Z,15.98
2018-07-27T03:25:29.464Z,17.98
2018-07-27T03:27:58.378Z,17.20
2018-07-27T03:30:27.238Z,16.52
2018-07-27T03:32:56.361Z,19.30
2018-07-27T03:35:25.354Z,19.62
2018-07-27T03:37:54.269Z,22.25
2018-07-27T03:40:23.182Z,23.90
2018-07-27T03:42:52.086Z,23.57
2018-07-27T03:45:21.281Z,22.80
2018-07-27T03:47:50.181Z,24.12
2018-07-27T03:50:19.302Z,23.47
2018-07-27T03:52:48.394Z,22.65
2018-07-27T03:55:17.306Z,20.95
2018-07-27T03:57:46.464Z,21.40
2018-07-27T04:00:15.667Z,22.85
2018-07-27T04:02:44.544Z,22.40
2018-07-27T04:05:13.399Z,22.05
2018-07-27T04:07:42.313Z,20.75
2018-07-27T04:10:11.231Z,20.02
2018-07-27T04:12:40.211Z,21.15
2018-07-27T04:15:09.589Z,19.75
2018-07-27T04:17:38.528Z,21.45
2018-07-27T04:20:07.480Z,19.87
2018-07-27T04:22:36.361Z,19.07
2018-07-27T04:25:05.311Z,19.98
2018-07-27T04:27:34.244Z,20.57
2018-07-27T04:30:03.104Z,19.62
2018-07-27T04:32:32.033Z,17.85
2018-07-27T04:35:00.964Z,18.40
2018-07-27T04:37:29.864Z,19.60
2018-07-27T04:39:58.756Z,18.23
2018-07-27T04:42:27.663Z,18.92
2018-07-27T04:44:56.562Z,21.25
2018-07-27T04:47:25.532Z,20.70
2018-07-27T04:49:54.648Z,19.25
2018-07-27T04:52:23.527Z,20.37
2018-07-27T04:54:52.442Z,21.30
2018-07-27T04:57:21.337Z,20.60
2018-07-27T04:59:50.321Z,20.57
2018-07-27T05:02:19.174Z,20.25
2018-07-27T05:04:48.393Z,18.62
2018-07-27T05:07:17.344Z,20.82
2018-07-27T05:09:46.234Z,22.55
2018-07-27T05:12:15.152Z,19.80
2018-07-27T05:14:44.021Z,20.45
2018-07-27T05:17:12.910Z,20.65
2018-07-27T05:19:41.772Z,21.97
2018-07-27T05:22:10.741Z,19.55
2018-07-27T05:24:39.631Z,21.75
2018-07-27T05:27:08.544Z,19.05
2018-07-27T05:29:37.488Z,19.50
2018-07-27T05:32:06.540Z,18.05
2018-07-27T05:34:35.424Z,19.12
2018-07-27T05:37:04.375Z,20.23
2018-07-27T05:39:33.230Z,19.45
2018-07-27T05:42:02.167Z,16.27
2018-07-27T05:44:31.044Z,16.52
2018-07-27T05:47:00.079Z,15.63
2018-07-27T05:49:28.983Z,14.70
2018-07-27T05:51:58.504Z,15.28
2018-07-27T05:54:27.958Z,15.10
2018-07-27T05:56:56.996Z,14.05
2018-07-27T05:59:25.932Z,15.80
2018-07-27T06:01:54.888Z,14.93
2018-07-27T06:04:23.871Z,14.18
2018-07-27T06:06:52.772Z,14.03
2018-07-27T06:09:21.659Z,14.50
2018-07-27T06:11:50.557Z,15.25
2018-07-27T06:14:19.083Z,15.70
2018-07-27T06:16:47.979Z,16.20
2018-07-27T06:19:16.889Z,16.07
2018-07-27T06:21:45.970Z,15.95
2018-07-27T06:24:14.935Z,16.95
2018-07-27T06:26:43.819Z,17.62
2018-07-27T06:29:12.843Z,18.67
2018-07-27T06:31:41.844Z,17.40
2018-07-27T06:34:12.169Z,18.20
2018-07-27T06:36:42.079Z,19.75
2018-07-27T06:39:11.747Z,18.62
2018-07-27T06:41:41.235Z,18.30
2018-07-27T06:44:11.243Z,17.92
2018-07-27T06:46:40.272Z,17.67
2018-07-27T06:49:09.928Z,16.97
2018-07-27T06:51:38.848Z,18.12
2018-07-27T06:54:07.917Z,18.70
2018-07-27T06:56:36.776Z,20.60
2018-07-27T06:59:05.677Z,20.08
2018-07-27T07:01:34.589Z,19.48
2018-07-27T07:04:03.483Z,19.55
2018-07-27T07:06:32.837Z,18.98
2018-07-27T07:09:01.776Z,18.02
2018-07-27T07:11:31.525Z,16.62
2018-07-27T07:14:00.388Z,15.88
2018-07-27T07:16:29.452Z,16.77
2018-07-27T07:18:58.353Z,15.75
2018-07-27T07:21:27.631Z,13.70
2018-07-27T07:23:56.511Z,15.63
2018-07-27T07:26:25.575Z,15.55
2018-07-27T07:28:54.866Z,15.57
2018-07-27T07:31:23.791Z,15.37
2018-07-27T07:33:52.767Z,16.07
2018-07-27T07:36:21.850Z,15.40
2018-07-27T07:38:51.353Z,15.03
2018-07-27T07:41:20.328Z,14.53
2018-07-27T07:43:49.243Z,14.63
2018-07-27T07:46:18.124Z,15.07
2018-07-27T07:48:47.148Z,13.90
2018-07-27T07:51:16.324Z,12.80
2018-07-27T07:53:45.452Z,11.20
2018-07-27T07:56:14.532Z,9.53
2018-07-27T07:58:43.106Z,9.57
2018-07-27T08:01:12.175Z,9.60
2018-07-27T08:03:41.075Z,10.37
2018-07-27T08:06:09.962Z,10.00
2018-07-27T08:08:38.874Z,9.70
2018-07-27T08:11:07.810Z,11.50
2018-07-27T08:13:36.699Z,8.50
2018-07-27T08:16:05.669Z,8.33
2018-07-27T08:18:34.548Z,9.43
2018-07-27T08:21:03.521Z,8.60
2018-07-27T08:23:32.444Z,9.40
2018-07-27T08:26:42.724Z,10.03
2018-07-27T08:29:13.088Z,9.40
2018-07-27T08:31:43.285Z,9.43
2018-07-27T08:34:12.854Z,9.20
2018-07-27T08:36:41.920Z,8.87
2018-07-27T08:39:12.307Z,9.70
2018-07-27T08:41:41.862Z,9.40
2018-07-27T08:44:12.721Z,9.70
2018-07-27T08:46:42.530Z,9.33
2018-07-27T08:49:12.348Z,9.13
2018-07-27T08:51:41.542Z,9.70
2018-07-27T08:54:10.560Z,9.97
2018-07-27T08:56:39.210Z,11.37
2018-07-27T08:59:08.565Z,9.70
2018-07-27T09:01:37.600Z,9.50
2018-07-27T09:04:06.677Z,9.30
2018-07-27T09:06:35.548Z,9.80
2018-07-27T09:09:06.887Z,8.23
2018-07-27T09:11:36.556Z,9.07
2018-07-27T09:14:05.077Z,8.30
2018-07-27T09:16:34.127Z,8.70
2018-07-27T09:19:03.029Z,9.77
2018-07-27T09:21:31.908Z,9.20
2018-07-27T09:24:00.963Z,8.93
2018-07-27T09:26:29.798Z,9.27
2018-07-27T09:28:59.254Z,9.20
2018-07-27T09:31:28.168Z,8.60
2018-07-27T09:33:57.176Z,8.43
2018-07-27T09:36:26.235Z,8.47
2018-07-27T09:38:55.690Z,8.30
2018-07-27T09:41:24.610Z,8.27
2018-07-27T09:43:53.504Z,8.33
2018-07-27T09:46:22.393Z,10.23
2018-07-27T09:48:51.898Z,9.07
2018-07-27T09:51:21.939Z,8.90
2018-07-27T09:53:51.070Z,8.50
2018-07-27T09:56:35.127Z,10.00
2018-07-27T09:59:04.087Z,9.07
2018-07-27T10:01:32.952Z,8.43
2018-07-27T10:04:01.952Z,9.70
2018-07-27T10:06:30.816Z,8.80
2018-07-27T10:08:59.740Z,10.27
2018-07-27T10:11:28.689Z,10.50
2018-07-27T10:13:57.567Z,10.10
2018-07-27T10:16:26.411Z,10.23
2018-07-27T10:18:55.316Z,8.00
2018-07-27T10:21:24.191Z,8.80
2018-07-27T10:23:53.100Z,8.73
2018-07-27T10:26:22.287Z,9.53
2018-07-27T10:28:51.218Z,10.27
2018-07-27T10:31:20.230Z,8.93
2018-07-27T10:33:49.105Z,8.87
2018-07-27T10:36:18.052Z,9.00
2018-07-27T10:38:47.240Z,9.40
2018-07-27T10:41:16.107Z,9.18
2018-07-27T10:43:44.984Z,9.00
2018-07-27T10:46:13.897Z,7.97
2018-07-27T10:48:42.898Z,8.53
2018-07-27T10:51:12.733Z,8.95
2018-07-27T10:53:41.889Z,8.05
2018-07-27T10:56:10.931Z,7.50
2018-07-27T10:58:40.068Z,8.20
2018-07-27T11:01:09.876Z,6.50
2018-07-27T11:03:38.749Z,8.43
2018-07-27T11:06:07.884Z,7.00
2018-07-27T11:08:36.804Z,7.80
2018-07-27T11:11:05.756Z,7.47
2018-07-27T11:13:34.626Z,6.87
2018-07-27T11:16:03.523Z,7.60
2018-07-27T11:18:32.435Z,7.70
2018-07-27T11:21:01.326Z,7.27
2018-07-27T11:23:30.409Z,7.70
2018-07-27T11:25:59.334Z,8.30
2018-07-27T11:28:28.504Z,7.80
2018-07-27T11:30:58.101Z,6.93
2018-07-27T11:33:27.085Z,8.37
2018-07-27T11:35:56.071Z,8.20
2018-07-27T11:38:24.935Z,7.47
2018-07-27T11:40:54.411Z,7.70
2018-07-27T11:43:23.283Z,7.47
2018-07-27T11:45:52.583Z,7.13
2018-07-27T11:48:21.472Z,6.60
2018-07-27T11:50:50.409Z,7.30
2018-07-27T11:53:20.330Z,6.33
2018-07-27T11:55:49.362Z,7.40
2018-07-27T11:58:18.220Z,6.70
2018-07-27T12:00:47.298Z,6.23
2018-07-27T12:03:16.325Z,8.20
2018-07-27T12:05:45.351Z,7.00
2018-07-27T12:08:14.314Z,6.80
2018-07-27T12:10:43.206Z,7.37
2018-07-27T12:13:12.374Z,8.13
2018-07-27T12:15:41.236Z,6.87
2018-07-27T12:18:10.152Z,6.03
2018-07-27T12:20:39.086Z,7.22
2018-07-27T12:23:08.110Z,7.30
2018-07-27T12:25:37.879Z,7.83
2018-07-27T12:28:06.802Z,7.60
2018-07-27T12:30:35.663Z,6.45
2018-07-27T12:33:04.592Z,9.80
2018-07-27T12:35:33.592Z,9.60
